Marigola — IBEL — position and weather

sailwx.info

Track history (hours):
 
Tides and Currents Weather Stations Pressure Air Temp Water Temp Dewpoint Dewpoint Depression Visibility Wind Speed Wind Dir Waves Ship Positions

Marigola

Last reported at 2017-Mar-26 00:21 UTC. Time now 2017-Mar-30 06:49 UTC.
Position N 17°39' W 066°33'.

Length 145 m; draft 7.9 m.

Type: Ship (hazmat cat A). MMSI: 247567000.

Date/timePositionNaut miles runAvg speedWind from/ knotsBaromVisibWave heightAir tempDewpointWater temp
2017-Mar-26 00:21N 17°39' W 066°33'1013.2
2017-Mar-25 23:33N 17°47' W 066°40'1110.8
2017-Mar-25 22:33N 17°57' W 066°44'2 0.1
2017-Mar-24 11:21N 17°59' W 066°44'4 5.0
2017-Mar-24 10:33N 17°55' W 066°45'7 7.2
2017-Mar-24 09:33N 17°49' W 066°49'1110.6
2017-Mar-24 08:29N 17°42' W 066°58'  
2017-Mar-20 11:18N 16°22' W 062°51'1012.5
2017-Mar-20 10:30N 16°12' W 062°49'1512.5
2017-Mar-20 09:16N 15°57' W 062°47'  
Track history (hours):
 
Tides and Currents Weather Stations Pressure Air Temp Water Temp Dewpoint Dewpoint Depression Visibility Wind Speed Wind Dir Waves Ship Positions

Marigola

Last reported at 2017-Mar-26 00:21 UTC. Time now 2017-Mar-30 06:49 UTC.
Position N 17°39' W 066°33'.

Length 145 m; draft 7.9 m.

Type: Ship (hazmat cat A). MMSI: 247567000.

Date/timePositionNaut miles runAvg speedWind from/ knotsBaromVisibWave heightAir tempDewpointWater temp
2017-Mar-26 00:21N 17°39' W 066°33'1013.2
2017-Mar-25 23:33N 17°47' W 066°40'1110.8
2017-Mar-25 22:33N 17°57' W 066°44'2 0.1
2017-Mar-24 11:21N 17°59' W 066°44'4 5.0
2017-Mar-24 10:33N 17°55' W 066°45'7 7.2
2017-Mar-24 09:33N 17°49' W 066°49'1110.6
2017-Mar-24 08:29N 17°42' W 066°58'  
2017-Mar-20 11:18N 16°22' W 062°51'1012.5
2017-Mar-20 10:30N 16°12' W 062°49'1512.5
2017-Mar-20 09:16N 15°57' W 062°47'  

Dump ship's entire track history